sensor_id;sensor_type;location;lat;lon;timestamp;temperature;humidity
31975;DHT22;18500;43.618;1.474;2023-07-20T10:45:05;25.50;1.00
31975;DHT22;18500;43.618;1.474;2023-07-20T10:47:32;25.60;1.00
31975;DHT22;18500;43.618;1.474;2023-07-20T10:50:10;25.60;1.00
31975;DHT22;18500;43.618;1.474;2023-07-20T10:52:40;25.30;1.00
31975;DHT22;18500;43.618;1.474;2023-07-20T10:55:16;25.30;1.00
31975;DHT22;18500;43.618;1.474;2023-07-20T10:57:41;25.30;1.00
31975;DHT22;18500;43.618;1.474;2023-07-20T11:00:10;25.40;1.00
31975;DHT22;18500;43.618;1.474;2023-07-20T11:02:46;25.40;1.00
31975;DHT22;18500;43.618;1.474;2023-07-20T11:05:31;25.50;1.00
31975;DHT22;18500;43.618;1.474;2023-07-20T11:07:57;25.60;1.00
31975;DHT22;18500;43.618;1.474;2023-07-20T11:10:22;25.50;1.00
31975;DHT22;18500;43.618;1.474;2023-07-20T11:15:53;25.90;1.00
31975;DHT22;18500;43.618;1.474;2023-07-20T11:18:26;25.80;1.00
31975;DHT22;18500;43.618;1.474;2023-07-20T11:20:52;25.90;1.00
31975;DHT22;18500;43.618;1.474;2023-07-20T11:23:21;26.10;1.00
31975;DHT22;18500;43.618;1.474;2023-07-20T11:25:47;26.10;1.00
31975;DHT22;18500;43.618;1.474;2023-07-20T11:28:12;26.30;1.00
31975;DHT22;18500;43.618;1.474;2023-07-20T11:30:38;26.20;1.00
31975;DHT22;18500;43.618;1.474;2023-07-20T11:33:08;26.00;1.00
31975;DHT22;18500;43.618;1.474;2023-07-20T11:35:43;26.40;1.00
31975;DHT22;18500;43.618;1.474;2023-07-20T11:38:09;26.50;1.00
31975;DHT22;18500;43.618;1.474;2023-07-20T11:40:34;26.40;1.00
31975;DHT22;18500;43.618;1.474;2023-07-20T11:43:00;26.20;1.00
31975;DHT22;18500;43.618;1.474;2023-07-20T11:45:26;26.10;1.00
31975;DHT22;18500;43.618;1.474;2023-07-20T11:47:52;26.70;1.00
31975;DHT22;18500;43.618;1.474;2023-07-20T11:50:18;26.90;1.00
31975;DHT22;18500;43.618;1.474;2023-07-20T11:52:43;26.70;1.00
31975;DHT22;18500;43.618;1.474;2023-07-20T11:55:09;26.70;1.00
31975;DHT22;18500;43.618;1.474;2023-07-20T11:57:35;26.80;1.00
31975;DHT22;18500;43.618;1.474;2023-07-20T12:00:02;26.90;1.00
31975;DHT22;18500;43.618;1.474;2023-07-20T12:02:34;26.70;1.00
31975;DHT22;18500;43.618;1.474;2023-07-20T12:05:00;27.20;1.00
31975;DHT22;18500;43.618;1.474;2023-07-20T12:07:26;27.00;1.00
31975;DHT22;18500;43.618;1.474;2023-07-20T12:10:08;27.10;1.00
31975;DHT22;18500;43.618;1.474;2023-07-20T12:12:34;27.20;1.00
31975;DHT22;18500;43.618;1.474;2023-07-20T12:17:44;27.40;1.00
31975;DHT22;18500;43.618;1.474;2023-07-20T12:20:10;27.70;1.00
31975;DHT22;18500;43.618;1.474;2023-07-20T12:22:39;27.50;1.00
31975;DHT22;18500;43.618;1.474;2023-07-20T12:25:05;27.80;1.00
31975;DHT22;18500;43.618;1.474;2023-07-20T12:27:31;27.80;1.00
31975;DHT22;18500;43.618;1.474;2023-07-20T12:29:56;27.90;1.00
31975;DHT22;18500;43.618;1.474;2023-07-20T12:32:22;28.20;1.00
31975;DHT22;18500;43.618;1.474;2023-07-20T12:34:48;28.50;1.00
31975;DHT22;18500;43.618;1.474;2023-07-20T12:37:14;28.40;1.00
31975;DHT22;18500;43.618;1.474;2023-07-20T12:39:43;28.40;1.00
31975;DHT22;18500;43.618;1.474;2023-07-20T12:42:12;29.60;1.00
31975;DHT22;18500;43.618;1.474;2023-07-20T12:44:39;35.70;99.90
31975;DHT22;18500;43.618;1.474;2023-07-20T12:47:05;37.40;99.90
31975;DHT22;18500;43.618;1.474;2023-07-20T12:49:30;40.10;99.90
31975;DHT22;18500;43.618;1.474;2023-07-20T12:51:56;42.10;99.90
31975;DHT22;18500;43.618;1.474;2023-07-20T12:54:22;42.10;99.90
31975;DHT22;18500;43.618;1.474;2023-07-20T12:56:47;40.20;99.90
31975;DHT22;18500;43.618;1.474;2023-07-20T12:59:12;41.90;99.90
31975;DHT22;18500;43.618;1.474;2023-07-20T13:01:38;41.30;99.90
31975;DHT22;18500;43.618;1.474;2023-07-20T13:04:06;41.70;99.90
31975;DHT22;18500;43.618;1.474;2023-07-20T13:06:34;42.60;99.90
31975;DHT22;18500;43.618;1.474;2023-07-20T13:09:00;43.00;99.90
31975;DHT22;18500;43.618;1.474;2023-07-20T13:11:25;44.30;99.90
31975;DHT22;18500;43.618;1.474;2023-07-20T13:13:51;45.30;99.90
31975;DHT22;18500;43.618;1.474;2023-07-20T13:16:17;44.10;99.90
31975;DHT22;18500;43.618;1.474;2023-07-20T13:18:42;44.00;99.90
31975;DHT22;18500;43.618;1.474;2023-07-20T13:21:08;43.00;99.90
31975;DHT22;18500;43.618;1.474;2023-07-20T13:23:36;43.60;99.90
31975;DHT22;18500;43.618;1.474;2023-07-20T13:26:02;45.20;99.90
31975;DHT22;18500;43.618;1.474;2023-07-20T13:28:28;45.10;99.90
31975;DHT22;18500;43.618;1.474;2023-07-20T13:30:54;42.80;99.90
31975;DHT22;18500;43.618;1.474;2023-07-20T13:33:19;42.30;99.90
31975;DHT22;18500;43.618;1.474;2023-07-20T13:35:45;43.80;99.90
31975;DHT22;18500;43.618;1.474;2023-07-20T13:38:10;44.80;99.90
31975;DHT22;18500;43.618;1.474;2023-07-20T13:40:36;43.10;99.90
31975;DHT22;18500;43.618;1.474;2023-07-20T13:43:02;42.90;99.90
31975;DHT22;18500;43.618;1.474;2023-07-20T13:45:27;43.70;99.90
31975;DHT22;18500;43.618;1.474;2023-07-20T13:47:53;43.40;99.90
31975;DHT22;18500;43.618;1.474;2023-07-20T13:50:18;44.00;99.90
31975;DHT22;18500;43.618;1.474;2023-07-20T13:52:44;42.90;99.90
31975;DHT22;18500;43.618;1.474;2023-07-20T13:55:09;43.00;99.90
31975;DHT22;18500;43.618;1.474;2023-07-20T13:57:35;43.90;99.90
31975;DHT22;18500;43.618;1.474;2023-07-20T14:00:01;41.00;99.90
31975;DHT22;18500;43.618;1.474;2023-07-20T14:02:27;43.40;99.90
31975;DHT22;18500;43.618;1.474;2023-07-20T14:04:53;42.50;99.90
31975;DHT22;18500;43.618;1.474;2023-07-20T14:07:21;43.70;99.90
31975;DHT22;18500;43.618;1.474;2023-07-20T14:09:46;44.00;99.90
31975;DHT22;18500;43.618;1.474;2023-07-20T14:12:12;41.50;99.90
31975;DHT22;18500;43.618;1.474;2023-07-20T14:14:42;39.70;99.90
31975;DHT22;18500;43.618;1.474;2023-07-20T14:17:07;41.40;99.90
31975;DHT22;18500;43.618;1.474;2023-07-20T14:19:33;42.40;99.90
31975;DHT22;18500;43.618;1.474;2023-07-20T14:21:58;42.20;99.90
31975;DHT22;18500;43.618;1.474;2023-07-20T14:24:25;44.30;99.90
31975;DHT22;18500;43.618;1.474;2023-07-20T14:26:51;45.10;99.90
31975;DHT22;18500;43.618;1.474;2023-07-20T14:29:16;45.00;99.90
31975;DHT22;18500;43.618;1.474;2023-07-20T14:31:43;41.00;99.90
31975;DHT22;18500;43.618;1.474;2023-07-20T14:34:09;40.20;99.90
31975;DHT22;18500;43.618;1.474;2023-07-20T14:36:34;40.30;99.90
31975;DHT22;18500;43.618;1.474;2023-07-20T14:39:00;41.50;99.90
31975;DHT22;18500;43.618;1.474;2023-07-20T14:41:25;42.10;99.90
31975;DHT22;18500;43.618;1.474;2023-07-20T14:43:51;38.90;99.90
31975;DHT22;18500;43.618;1.474;2023-07-20T14:46:17;36.10;99.90
31975;DHT22;18500;43.618;1.474;2023-07-20T14:48:42;33.40;99.90
31975;DHT22;18500;43.618;1.474;2023-07-20T14:51:08;32.60;99.90
31975;DHT22;18500;43.618;1.474;2023-07-20T14:53:34;32.20;99.90
31975;DHT22;18500;43.618;1.474;2023-07-20T14:56:00;31.90;99.90
31975;DHT22;18500;43.618;1.474;2023-07-20T14:58:26;31.50;99.90
31975;DHT22;18500;43.618;1.474;2023-07-20T15:00:51;31.30;99.90
31975;DHT22;18500;43.618;1.474;2023-07-20T15:03:17;31.30;99.90
31975;DHT22;18500;43.618;1.474;2023-07-20T15:05:42;31.30;99.90
31975;DHT22;18500;43.618;1.474;2023-07-20T15:08:08;31.10;99.90
31975;DHT22;18500;43.618;1.474;2023-07-20T15:10:34;31.40;99.90
31975;DHT22;18500;43.618;1.474;2023-07-20T15:12:59;31.20;99.90
31975;DHT22;18500;43.618;1.474;2023-07-20T15:15:25;31.40;99.90
31975;DHT22;18500;43.618;1.474;2023-07-20T15:17:51;31.20;99.90
31975;DHT22;18500;43.618;1.474;2023-07-20T15:20:16;31.20;99.90
31975;DHT22;18500;43.618;1.474;2023-07-20T15:22:42;30.90;99.90
31975;DHT22;18500;43.618;1.474;2023-07-20T15:25:08;30.80;99.90
31975;DHT22;18500;43.618;1.474;2023-07-20T15:27:36;30.30;99.90
31975;DHT22;18500;43.618;1.474;2023-07-20T15:30:01;30.20;99.90
31975;DHT22;18500;43.618;1.474;2023-07-20T15:32:27;30.40;99.90
31975;DHT22;18500;43.618;1.474;2023-07-20T15:34:52;30.50;99.90
31975;DHT22;18500;43.618;1.474;2023-07-20T15:37:18;30.00;99.90
31975;DHT22;18500;43.618;1.474;2023-07-20T15:39:44;30.00;99.90
31975;DHT22;18500;43.618;1.474;2023-07-20T15:42:13;29.70;99.90
31975;DHT22;18500;43.618;1.474;2023-07-20T15:44:38;29.80;99.90
31975;DHT22;18500;43.618;1.474;2023-07-20T15:47:04;30.00;99.90
31975;DHT22;18500;43.618;1.474;2023-07-20T15:49:31;29.90;99.90
31975;DHT22;18500;43.618;1.474;2023-07-20T15:51:57;29.50;99.90
31975;DHT22;18500;43.618;1.474;2023-07-20T15:54:22;29.30;99.90
31975;DHT22;18500;43.618;1.474;2023-07-20T15:56:48;29.50;99.90
31975;DHT22;18500;43.618;1.474;2023-07-20T15:59:15;29.50;99.90
31975;DHT22;18500;43.618;1.474;2023-07-20T16:01:41;29.40;99.90
31975;DHT22;18500;43.618;1.474;2023-07-20T16:04:07;29.20;99.90
31975;DHT22;18500;43.618;1.474;2023-07-20T16:06:33;29.40;99.90
31975;DHT22;18500;43.618;1.474;2023-07-20T16:09:01;29.00;99.90
31975;DHT22;18500;43.618;1.474;2023-07-20T16:11:26;28.90;99.90
31975;DHT22;18500;43.618;1.474;2023-07-20T16:13:52;29.10;99.90
31975;DHT22;18500;43.618;1.474;2023-07-20T16:16:18;28.90;99.90
31975;DHT22;18500;43.618;1.474;2023-07-20T16:18:44;28.60;99.90
31975;DHT22;18500;43.618;1.474;2023-07-20T16:21:10;28.80;99.90
31975;DHT22;18500;43.618;1.474;2023-07-20T16:23:35;28.40;99.90
31975;DHT22;18500;43.618;1.474;2023-07-20T16:26:01;28.30;99.90
31975;DHT22;18500;43.618;1.474;2023-07-20T16:28:27;28.50;99.90
31975;DHT22;18500;43.618;1.474;2023-07-20T16:30:52;28.80;99.90
31975;DHT22;18500;43.618;1.474;2023-07-20T16:33:18;28.70;99.90
31975;DHT22;18500;43.618;1.474;2023-07-20T16:35:44;28.70;99.90
31975;DHT22;18500;43.618;1.474;2023-07-20T16:38:09;28.40;99.90
31975;DHT22;18500;43.618;1.474;2023-07-20T16:40:38;28.40;99.90
31975;DHT22;18500;43.618;1.474;2023-07-20T16:43:04;28.40;99.90
31975;DHT22;18500;43.618;1.474;2023-07-20T16:45:31;28.30;99.90
31975;DHT22;18500;43.618;1.474;2023-07-20T16:47:57;28.30;99.90
31975;DHT22;18500;43.618;1.474;2023-07-20T16:50:23;28.40;99.90
31975;DHT22;18500;43.618;1.474;2023-07-20T16:52:48;28.40;99.90
31975;DHT22;18500;43.618;1.474;2023-07-20T16:55:14;28.30;99.90
31975;DHT22;18500;43.618;1.474;2023-07-20T16:57:39;28.10;99.90
31975;DHT22;18500;43.618;1.474;2023-07-20T17:00:05;28.20;99.90
31975;DHT22;18500;43.618;1.474;2023-07-20T17:02:39;28.00;99.90
31975;DHT22;18500;43.618;1.474;2023-07-20T17:05:04;28.10;99.90
31975;DHT22;18500;43.618;1.474;2023-07-20T17:07:38;27.80;99.90
31975;DHT22;18500;43.618;1.474;2023-07-20T17:10:04;27.70;99.90
31975;DHT22;18500;43.618;1.474;2023-07-20T17:12:32;27.90;99.90
31975;DHT22;18500;43.618;1.474;2023-07-20T17:14:58;27.80;99.90
31975;DHT22;18500;43.618;1.474;2023-07-20T17:17:24;27.60;99.90
31975;DHT22;18500;43.618;1.474;2023-07-20T17:19:49;27.40;99.90
31975;DHT22;18500;43.618;1.474;2023-07-20T17:22:15;27.50;99.90
31975;DHT22;18500;43.618;1.474;2023-07-20T17:24:40;27.50;99.90
31975;DHT22;18500;43.618;1.474;2023-07-20T17:27:06;27.50;99.90
31975;DHT22;18500;43.618;1.474;2023-07-20T17:29:31;27.40;99.90
31975;DHT22;18500;43.618;1.474;2023-07-20T17:31:58;27.20;99.90
31975;DHT22;18500;43.618;1.474;2023-07-20T17:34:23;27.30;99.90
31975;DHT22;18500;43.618;1.474;2023-07-20T17:36:49;27.30;99.90
31975;DHT22;18500;43.618;1.474;2023-07-20T17:39:15;27.20;99.90
31975;DHT22;18500;43.618;1.474;2023-07-20T17:41:41;27.30;99.90
31975;DHT22;18500;43.618;1.474;2023-07-20T17:44:06;27.20;99.90
31975;DHT22;18500;43.618;1.474;2023-07-20T17:46:32;27.10;99.90
31975;DHT22;18500;43.618;1.474;2023-07-20T17:48:58;27.10;99.90
31975;DHT22;18500;43.618;1.474;2023-07-20T17:51:23;27.10;99.90
31975;DHT22;18500;43.618;1.474;2023-07-20T17:53:49;27.00;99.90
31975;DHT22;18500;43.618;1.474;2023-07-20T17:56:14;26.90;99.90
31975;DHT22;18500;43.618;1.474;2023-07-20T17:58:40;26.90;99.90
31975;DHT22;18500;43.618;1.474;2023-07-20T18:01:06;26.70;99.90
31975;DHT22;18500;43.618;1.474;2023-07-20T18:03:32;26.60;99.90
31975;DHT22;18500;43.618;1.474;2023-07-20T18:06:04;26.70;99.90
31975;DHT22;18500;43.618;1.474;2023-07-20T18:08:31;26.70;99.90
31975;DHT22;18500;43.618;1.474;2023-07-20T18:11:01;26.50;99.90
31975;DHT22;18500;43.618;1.474;2023-07-20T18:13:27;26.50;99.90
31975;DHT22;18500;43.618;1.474;2023-07-20T18:15:54;26.60;99.90
31975;DHT22;18500;43.618;1.474;2023-07-20T18:18:20;26.50;99.90
31975;DHT22;18500;43.618;1.474;2023-07-20T18:20:45;26.50;99.90
31975;DHT22;18500;43.618;1.474;2023-07-20T18:23:11;26.30;99.90
31975;DHT22;18500;43.618;1.474;2023-07-20T18:25:36;26.30;99.90
31975;DHT22;18500;43.618;1.474;2023-07-20T18:28:02;26.20;99.90
31975;DHT22;18500;43.618;1.474;2023-07-20T18:30:29;26.10;99.90
31975;DHT22;18500;43.618;1.474;2023-07-20T18:32:58;26.10;99.90
31975;DHT22;18500;43.618;1.474;2023-07-20T18:35:24;26.00;99.90
31975;DHT22;18500;43.618;1.474;2023-07-20T18:37:49;26.00;99.90
31975;DHT22;18500;43.618;1.474;2023-07-20T18:40:15;26.00;99.90
31975;DHT22;18500;43.618;1.474;2023-07-20T18:42:41;25.80;99.90
31975;DHT22;18500;43.618;1.474;2023-07-20T18:45:06;25.80;99.90
31975;DHT22;18500;43.618;1.474;2023-07-20T18:47:32;25.80;99.90
31975;DHT22;18500;43.618;1.474;2023-07-20T18:49:57;25.80;99.90
31975;DHT22;18500;43.618;1.474;2023-07-20T18:52:23;25.70;99.90
31975;DHT22;18500;43.618;1.474;2023-07-20T18:54:48;25.60;99.90
31975;DHT22;18500;43.618;1.474;2023-07-20T18:57:14;25.50;99.90
31975;DHT22;18500;43.618;1.474;2023-07-20T18:59:39;25.40;99.90
31975;DHT22;18500;43.618;1.474;2023-07-20T19:02:06;25.40;99.90
31975;DHT22;18500;43.618;1.474;2023-07-20T19:04:32;25.30;99.90
31975;DHT22;18500;43.618;1.474;2023-07-20T19:06:58;25.30;99.90
31975;DHT22;18500;43.618;1.474;2023-07-20T19:09:23;25.30;99.90
31975;DHT22;18500;43.618;1.474;2023-07-20T19:11:49;25.20;99.90
31975;DHT22;18500;43.618;1.474;2023-07-20T19:14:14;25.10;99.90
31975;DHT22;18500;43.618;1.474;2023-07-20T19:16:40;25.10;99.90
31975;DHT22;18500;43.618;1.474;2023-07-20T19:19:05;25.00;99.90
31975;DHT22;18500;43.618;1.474;2023-07-20T19:21:31;25.00;99.90
31975;DHT22;18500;43.618;1.474;2023-07-20T19:23:57;24.90;99.90
31975;DHT22;18500;43.618;1.474;2023-07-20T19:26:22;24.80;99.90
31975;DHT22;18500;43.618;1.474;2023-07-20T19:28:48;24.80;99.90
31975;DHT22;18500;43.618;1.474;2023-07-20T19:31:13;24.80;99.90
31975;DHT22;18500;43.618;1.474;2023-07-20T19:33:39;24.70;99.90
31975;DHT22;18500;43.618;1.474;2023-07-20T19:36:05;24.60;99.90
31975;DHT22;18500;43.618;1.474;2023-07-20T19:38:31;24.60;99.90
31975;DHT22;18500;43.618;1.474;2023-07-20T19:40:56;24.40;99.90
31975;DHT22;18500;43.618;1.474;2023-07-20T19:43:22;24.40;99.90
31975;DHT22;18500;43.618;1.474;2023-07-20T19:45:48;24.50;99.90
31975;DHT22;18500;43.618;1.474;2023-07-20T19:48:14;24.60;99.90
31975;DHT22;18500;43.618;1.474;2023-07-20T19:50:49;24.60;99.90
31975;DHT22;18500;43.618;1.474;2023-07-20T19:53:18;24.70;99.90
31975;DHT22;18500;43.618;1.474;2023-07-20T19:55:44;24.60;99.90
31975;DHT22;18500;43.618;1.474;2023-07-20T19:58:09;24.60;99.90
31975;DHT22;18500;43.618;1.474;2023-07-20T20:00:41;24.60;99.90
31975;DHT22;18500;43.618;1.474;2023-07-20T20:03:07;24.60;99.90
31975;DHT22;18500;43.618;1.474;2023-07-20T20:05:33;24.60;99.90
31975;DHT22;18500;43.618;1.474;2023-07-20T20:08:03;24.60;99.90
31975;DHT22;18500;43.618;1.474;2023-07-20T20:10:33;24.60;99.90
31975;DHT22;18500;43.618;1.474;2023-07-20T20:12:59;24.60;99.90
31975;DHT22;18500;43.618;1.474;2023-07-20T20:15:24;24.50;99.90
31975;DHT22;18500;43.618;1.474;2023-07-20T20:17:55;24.50;99.90
31975;DHT22;18500;43.618;1.474;2023-07-20T20:20:22;24.50;99.90
31975;DHT22;18500;43.618;1.474;2023-07-20T20:22:48;24.40;99.90
31975;DHT22;18500;43.618;1.474;2023-07-20T20:25:13;24.40;99.90
31975;DHT22;18500;43.618;1.474;2023-07-20T20:27:39;24.40;99.90
31975;DHT22;18500;43.618;1.474;2023-07-20T20:30:06;24.30;99.90
31975;DHT22;18500;43.618;1.474;2023-07-20T20:32:31;24.30;99.90
31975;DHT22;18500;43.618;1.474;2023-07-20T20:35:02;24.20;99.90
31975;DHT22;18500;43.618;1.474;2023-07-20T20:37:28;24.20;99.90
31975;DHT22;18500;43.618;1.474;2023-07-20T20:39:54;24.20;99.90
31975;DHT22;18500;43.618;1.474;2023-07-20T20:42:19;24.10;99.90
31975;DHT22;18500;43.618;1.474;2023-07-20T20:44:45;24.00;1.00
31975;DHT22;18500;43.618;1.474;2023-07-20T20:47:10;24.10;99.90
31975;DHT22;18500;43.618;1.474;2023-07-20T20:49:36;24.00;99.90
31975;DHT22;18500;43.618;1.474;2023-07-20T20:52:13;24.00;99.90
31975;DHT22;18500;43.618;1.474;2023-07-20T20:54:38;24.00;99.90
31975;DHT22;18500;43.618;1.474;2023-07-20T20:57:04;24.00;99.90
31975;DHT22;18500;43.618;1.474;2023-07-20T20:59:30;23.90;99.90
31975;DHT22;18500;43.618;1.474;2023-07-20T21:01:56;23.80;99.90
31975;DHT22;18500;43.618;1.474;2023-07-20T21:04:26;23.80;99.90
31975;DHT22;18500;43.618;1.474;2023-07-20T21:06:51;23.80;99.90
31975;DHT22;18500;43.618;1.474;2023-07-20T21:09:17;23.80;99.90
31975;DHT22;18500;43.618;1.474;2023-07-20T21:11:42;23.70;99.90
31975;DHT22;18500;43.618;1.474;2023-07-20T21:14:08;23.70;99.90
31975;DHT22;18500;43.618;1.474;2023-07-20T21:16:34;23.70;99.90
31975;DHT22;18500;43.618;1.474;2023-07-20T21:19:00;23.60;1.00
31975;DHT22;18500;43.618;1.474;2023-07-20T21:21:25;23.50;99.90
31975;DHT22;18500;43.618;1.474;2023-07-20T21:23:52;23.40;1.00
31975;DHT22;18500;43.618;1.474;2023-07-20T21:26:17;23.40;1.00
31975;DHT22;18500;43.618;1.474;2023-07-20T21:28:44;23.30;1.00
31975;DHT22;18500;43.618;1.474;2023-07-20T21:31:10;23.30;1.00
31975;DHT22;18500;43.618;1.474;2023-07-20T21:33:35;23.30;1.00
31975;DHT22;18500;43.618;1.474;2023-07-20T21:36:01;23.20;1.00
31975;DHT22;18500;43.618;1.474;2023-07-20T21:38:27;23.20;1.00
31975;DHT22;18500;43.618;1.474;2023-07-20T21:40:54;23.20;1.00
31975;DHT22;18500;43.618;1.474;2023-07-20T21:43:19;23.10;1.00
31975;DHT22;18500;43.618;1.474;2023-07-20T21:45:45;23.10;1.00
31975;DHT22;18500;43.618;1.474;2023-07-20T21:48:10;23.10;1.00
31975;DHT22;18500;43.618;1.474;2023-07-20T21:50:37;23.00;1.00
31975;DHT22;18500;43.618;1.474;2023-07-20T21:53:03;23.00;1.00
31975;DHT22;18500;43.618;1.474;2023-07-20T21:55:29;23.00;1.00
31975;DHT22;18500;43.618;1.474;2023-07-20T21:57:55;23.00;1.00
31975;DHT22;18500;43.618;1.474;2023-07-20T22:00:20;23.00;1.00
31975;DHT22;18500;43.618;1.474;2023-07-20T22:02:49;23.00;1.00
31975;DHT22;18500;43.618;1.474;2023-07-20T22:05:14;23.00;1.00
31975;DHT22;18500;43.618;1.474;2023-07-20T22:07:40;23.00;1.00
31975;DHT22;18500;43.618;1.474;2023-07-20T22:10:06;23.00;1.00
31975;DHT22;18500;43.618;1.474;2023-07-20T22:12:33;23.00;1.00
31975;DHT22;18500;43.618;1.474;2023-07-20T22:14:59;22.90;1.00
31975;DHT22;18500;43.618;1.474;2023-07-20T22:17:24;22.90;1.00
31975;DHT22;18500;43.618;1.474;2023-07-20T22:19:50;22.90;1.00
31975;DHT22;18500;43.618;1.474;2023-07-20T22:22:15;22.90;1.00
31975;DHT22;18500;43.618;1.474;2023-07-20T22:24:41;22.90;1.00
31975;DHT22;18500;43.618;1.474;2023-07-20T22:27:07;22.90;1.00
31975;DHT22;18500;43.618;1.474;2023-07-20T22:29:35;22.90;1.00
31975;DHT22;18500;43.618;1.474;2023-07-20T22:32:04;22.90;1.00
31975;DHT22;18500;43.618;1.474;2023-07-20T22:34:30;22.90;1.00
31975;DHT22;18500;43.618;1.474;2023-07-20T22:36:58;22.80;1.00
31975;DHT22;18500;43.618;1.474;2023-07-20T22:39:24;22.80;1.00
31975;DHT22;18500;43.618;1.474;2023-07-20T22:41:49;22.80;1.00
31975;DHT22;18500;43.618;1.474;2023-07-20T22:44:15;22.80;1.00
31975;DHT22;18500;43.618;1.474;2023-07-20T22:46:41;22.80;1.00
31975;DHT22;18500;43.618;1.474;2023-07-20T22:49:08;22.70;1.00
31975;DHT22;18500;43.618;1.474;2023-07-20T22:51:34;22.70;1.00
31975;DHT22;18500;43.618;1.474;2023-07-20T22:54:00;22.70;1.00
31975;DHT22;18500;43.618;1.474;2023-07-20T22:56:25;22.70;1.00
31975;DHT22;18500;43.618;1.474;2023-07-20T22:58:51;22.70;1.00
31975;DHT22;18500;43.618;1.474;2023-07-20T23:01:17;22.60;1.00
31975;DHT22;18500;43.618;1.474;2023-07-20T23:03:42;22.60;1.00
31975;DHT22;18500;43.618;1.474;2023-07-20T23:06:08;22.60;1.00
31975;DHT22;18500;43.618;1.474;2023-07-20T23:08:33;22.50;1.00
31975;DHT22;18500;43.618;1.474;2023-07-20T23:11:01;22.40;1.00
31975;DHT22;18500;43.618;1.474;2023-07-20T23:13:27;22.50;1.00
31975;DHT22;18500;43.618;1.474;2023-07-20T23:15:53;22.40;1.00
31975;DHT22;18500;43.618;1.474;2023-07-20T23:18:19;22.40;1.00
31975;DHT22;18500;43.618;1.474;2023-07-20T23:20:46;22.30;1.00
